Time;durP1;ratioP1;P1;durP2;ratioP2;P2;SDS_P1;SDS_P2;PMS_P1;PMS_P2;Temp;Humidity;BMP_temperature;BMP_pressure;BME280_temperature;BME280_humidity;BME280_pressure;Samples;Min_cycle;Max_cycle;Signal;HPM_P1;HPM_P2
2021/12/17 00:01:05;;;;;;;96.50;43.30;;;;;;;6.56;99.40;103998.31;5006669;28;20052;-72
2021/12/17 00:03:44;;;;;;;100.15;42.30;;;;;;;6.58;99.00;103995.84;5001233;28;20033;-72
2021/12/17 00:06:28;;;;;;;92.30;42.83;;;;;;;6.61;99.51;103997.03;5003507;28;20084;-72
2021/12/17 00:08:56;;;;;;;90.85;41.97;;;;;;;6.63;98.93;104004.94;5001849;28;20277;-72
2021/12/17 00:11:22;;;;;;;87.13;40.38;;;;;;;6.64;99.09;104004.16;5002800;28;20032;-72
2021/12/17 00:13:48;;;;;;;85.95;40.08;;;;;;;6.64;99.29;103995.50;4998156;28;20030;-72
2021/12/17 00:16:21;;;;;;;88.78;40.97;;;;;;;6.63;99.39;103993.66;5003765;28;20382;-72
2021/12/17 00:19:50;;;;;;;89.30;41.00;;;;;;;6.64;99.19;103990.31;5005716;28;20026;-72
2021/12/17 00:48:39;;;;;;;108.35;41.78;;;;;;;6.77;99.41;103982.88;5002824;28;20043;-72
2021/12/17 00:53:34;;;;;;;111.15;41.50;;;;;;;6.79;99.63;103979.66;5001638;28;20022;-72
2021/12/17 00:56:00;;;;;;;111.32;43.33;;;;;;;6.81;99.87;103981.44;5004681;28;20105;-72
2021/12/17 00:58:25;;;;;;;111.25;42.15;;;;;;;6.82;99.49;103980.69;5000279;28;20060;-72
2021/12/17 01:00:51;;;;;;;108.90;42.05;;;;;;;6.83;99.55;103983.41;5005522;28;20068;-72
2021/12/17 01:03:16;;;;;;;114.28;43.20;;;;;;;6.83;99.76;103982.50;5003573;28;20190;-72
2021/12/17 01:05:43;;;;;;;109.95;42.97;;;;;;;6.84;99.68;103981.75;4999943;28;20109;-72
2021/12/17 01:08:08;;;;;;;104.47;40.78;;;;;;;6.85;99.39;103981.88;4998665;28;20056;-72
2021/12/17 01:10:42;;;;;;;101.93;40.60;;;;;;;6.85;99.70;103987.06;5004787;28;20465;-72
2021/12/17 01:13:08;;;;;;;113.35;43.88;;;;;;;6.87;99.82;103971.66;5001342;28;20030;-72
2021/12/17 01:15:36;;;;;;;108.53;41.30;;;;;;;6.86;99.72;103972.41;4995889;28;20165;-72
2021/12/17 01:18:08;;;;;;;109.40;41.88;;;;;;;6.85;99.83;103971.50;5002715;28;20119;-72
2021/12/17 01:36:19;;;;;;;108.60;39.42;;;;;;;6.92;99.39;103979.06;4994876;28;20519;-72
2021/12/17 01:44:04;;;;;;;107.95;39.70;;;;;;;6.93;99.25;103959.22;5001306;28;20042;-72
2021/12/17 01:46:33;;;;;;;113.53;41.60;;;;;;;6.94;99.41;103961.06;5000476;28;20033;-72
2021/12/17 01:59:52;;;;;;;135.32;37.60;;;;;;;6.98;99.55;103965.75;4997596;28;20512;-72
2021/12/17 02:02:18;;;;;;;152.82;41.40;;;;;;;7.00;99.93;103961.59;4997941;28;20037;-72
2021/12/17 02:04:44;;;;;;;133.90;38.22;;;;;;;7.00;99.70;103964.19;5002784;28;20021;-72
2021/12/17 02:07:09;;;;;;;140.07;39.97;;;;;;;7.00;99.62;103966.78;5005150;28;20112;-72
2021/12/17 02:19:32;;;;;;;149.63;37.50;;;;;;;7.05;99.50;103964.59;5006366;28;20041;-72
2021/12/17 02:31:34;;;;;;;128.85;34.17;;;;;;;7.10;99.10;103982.38;5000680;28;20034;-72
2021/12/17 02:34:19;;;;;;;134.63;34.20;;;;;;;7.10;99.51;103973.69;5007972;28;20088;-72
2021/12/17 02:36:46;;;;;;;152.20;35.53;;;;;;;7.11;99.61;103975.50;4999550;28;20025;-72
2021/12/17 02:47:07;;;;;;;144.40;37.42;;;;;;;7.12;99.24;103972.13;5002228;28;20036;-72
2021/12/17 02:49:33;;;;;;;142.82;39.65;;;;;;;7.12;99.30;103969.53;5000218;28;20022;-72
2021/12/17 02:52:03;;;;;;;137.32;37.53;;;;;;;7.11;99.63;103966.03;5001342;28;20045;-72
2021/12/17 02:54:29;;;;;;;136.15;36.60;;;;;;;7.11;99.29;103971.22;5005714;28;20101;-72
2021/12/17 02:56:54;;;;;;;130.25;37.70;;;;;;;7.10;99.56;103969.41;5026009;28;20112;-72
2021/12/17 02:59:20;;;;;;;129.88;38.13;;;;;;;7.10;99.07;103966.81;5004686;28;20053;-72
2021/12/17 03:01:48;;;;;;;144.02;37.63;;;;;;;7.11;99.41;103967.72;5008926;28;20109;-72
2021/12/17 03:04:14;;;;;;;150.60;38.67;;;;;;;7.13;99.39;103966.19;5010509;28;20034;-72
2021/12/17 03:06:41;;;;;;;142.50;37.97;;;;;;;7.12;99.60;103969.53;5000414;28;20477;-73
2021/12/17 03:09:07;;;;;;;143.63;35.30;;;;;;;7.13;99.36;103968.78;5005911;28;20041;-72
2021/12/17 03:11:32;;;;;;;153.35;35.95;;;;;;;7.13;99.55;103967.06;5005294;28;20022;-72
2021/12/17 03:13:58;;;;;;;161.63;36.50;;;;;;;7.16;99.83;103970.72;5010224;28;20735;-72
2021/12/17 03:16:33;;;;;;;154.20;35.80;;;;;;;7.15;99.13;103967.22;5009744;28;20032;-72
2021/12/17 03:19:25;;;;;;;173.75;36.17;;;;;;;7.16;99.65;103973.31;5003693;28;20030;-72
2021/12/17 03:24:34;;;;;;;167.60;35.47;;;;;;;7.18;99.73;103982.13;4999563;28;20117;-72
2021/12/17 03:26:59;;;;;;;168.77;35.17;;;;;;;7.18;99.47;103983.03;5009473;28;20030;-72
2021/12/17 03:29:24;;;;;;;182.90;36.03;;;;;;;7.19;99.55;103979.69;5011070;28;20090;-72
2021/12/17 03:31:50;;;;;;;180.57;35.05;;;;;;;7.19;99.77;103981.38;5009298;28;20036;-72
2021/12/17 03:34:18;;;;;;;205.25;38.03;;;;;;;7.19;99.97;103989.16;5002015;28;20038;-72
2021/12/17 03:36:53;;;;;;;178.10;35.60;;;;;;;7.18;99.57;103979.53;5000249;28;20033;-72
2021/12/17 03:39:18;;;;;;;188.20;37.22;;;;;;;7.19;99.61;103971.00;4999762;28;20456;-72
2021/12/17 03:41:50;;;;;;;196.50;36.80;;;;;;;7.20;99.37;103975.38;5000370;28;20030;-72
2021/12/17 03:44:16;;;;;;;199.18;35.72;;;;;;;7.19;100.00;103979.69;5006799;28;20476;-72
2021/12/17 03:46:41;;;;;;;208.13;37.83;;;;;;;7.21;99.75;103982.41;4998507;28;20033;-72
2021/12/17 03:49:06;;;;;;;207.68;37.60;;;;;;;7.20;99.70;103976.31;5007697;28;20376;-72
2021/12/17 03:51:36;;;;;;;185.82;33.15;;;;;;;7.21;99.85;103972.03;5007746;28;20026;-72
2021/12/17 03:54:01;;;;;;;190.45;34.78;;;;;;;7.20;99.88;103976.31;4999072;28;20113;-72
2021/12/17 03:56:27;;;;;;;198.57;35.55;;;;;;;7.20;99.89;103975.38;5007803;28;20133;-72
2021/12/17 03:58:55;;;;;;;192.15;34.53;;;;;;;7.20;100.00;103970.19;4996667;28;20047;-72
2021/12/17 04:01:21;;;;;;;198.57;37.22;;;;;;;7.19;99.62;103969.31;5010336;28;20022;-72
2021/12/17 04:03:47;;;;;;;200.63;35.85;;;;;;;7.20;99.67;103973.72;5004126;28;20041;-72
2021/12/17 04:06:12;;;;;;;212.77;40.53;;;;;;;7.22;99.65;103976.44;4998394;28;20068;-72
2021/12/17 04:08:38;;;;;;;198.15;35.58;;;;;;;7.22;100.00;103972.16;5004090;28;20408;-72
2021/12/17 04:11:08;;;;;;;220.43;37.72;;;;;;;7.23;99.50;103975.69;5009244;28;20041;-73
2021/12/17 04:13:37;;;;;;;226.25;40.28;;;;;;;7.22;100.00;103969.56;5004776;28;20393;-72
2021/12/17 04:16:07;;;;;;;;;;;;;;;7.27;99.36;103967.38;5003495;28;20095;-72
2021/12/17 04:18:34;;;;;;;219.80;37.75;;;;;;;7.24;99.61;103977.47;5008447;28;19924;-72
2021/12/17 04:21:02;;;;;;;230.48;39.70;;;;;;;7.23;99.89;103970.50;5001498;28;20096;-72
2021/12/17 04:23:27;;;;;;;237.75;41.22;;;;;;;7.22;100.00;103968.66;5006680;28;20034;-72
2021/12/17 04:25:53;;;;;;;251.15;43.67;;;;;;;7.24;99.94;103967.09;5007726;28;20045;-72
2021/12/17 04:28:19;;;;;;;234.35;42.08;;;;;;;7.23;100.00;103970.50;5001496;28;20504;-72
2021/12/17 04:30:45;;;;;;;229.13;40.45;;;;;;;7.23;100.00;103974.00;5006946;28;20311;-72
2021/12/17 04:33:12;;;;;;;235.40;41.78;;;;;;;7.22;100.00;103973.84;5006019;28;20032;-72
2021/12/17 04:35:37;;;;;;;248.43;41.58;;;;;;;7.22;100.00;103973.84;5003548;28;20120;-72
2021/12/17 04:38:05;;;;;;;255.75;43.65;;;;;;;7.22;100.00;103971.25;5008066;28;20113;-72
2021/12/17 04:40:31;;;;;;;247.13;43.40;;;;;;;7.21;100.00;103974.63;5002471;28;20038;-72
2021/12/17 04:43:11;;;;;;;254.23;45.20;;;;;;;7.23;100.00;103973.09;5004981;28;20025;-72
2021/12/17 04:45:41;;;;;;;;;;;;;;;7.27;99.89;103970.91;5005822;28;20547;-73
2021/12/17 04:59:03;;;;;;;238.77;42.53;;;;;;;7.21;100.00;103959.06;5008720;28;20132;-72
2021/12/17 05:01:28;;;;;;;238.07;41.03;;;;;;;7.22;100.00;103963.47;5002803;28;20050;-73
2021/12/17 05:03:54;;;;;;;239.43;41.97;;;;;;;7.22;100.00;103960.88;5006360;28;20072;-72
2021/12/17 05:06:19;;;;;;;252.50;44.70;;;;;;;7.20;100.00;103968.53;5003004;28;20405;-72
2021/12/17 05:08:45;;;;;;;264.02;44.13;;;;;;;7.20;100.00;103962.41;5004794;28;20077;-73
2021/12/17 05:21:35;;;;;;;247.95;42.20;;;;;;;7.22;100.00;103966.06;5006582;28;20038;-72
2021/12/17 05:24:00;;;;;;;232.25;42.88;;;;;;;7.22;100.00;103972.16;5005682;28;20026;-72
2021/12/17 05:26:25;;;;;;;260.08;42.00;;;;;;;7.23;100.00;103974.00;5006281;28;20429;-73
2021/12/17 05:28:51;;;;;;;244.48;42.72;;;;;;;7.23;100.00;103980.88;5009401;28;20029;-73
2021/12/17 05:31:21;;;;;;;238.68;40.75;;;;;;;7.22;100.00;103974.75;5007025;28;20198;-73
2021/12/17 05:33:48;;;;;;;259.05;43.88;;;;;;;7.24;100.00;103977.47;5002420;28;20029;-73
2021/12/17 05:36:14;;;;;;;251.95;45.65;;;;;;;7.24;100.00;103982.66;5021553;28;20054;-73
2021/12/17 05:38:39;;;;;;;250.15;43.10;;;;;;;7.24;100.00;103985.25;5007363;28;20160;-73
2021/12/17 05:41:04;;;;;;;231.65;40.92;;;;;;;7.23;100.00;103992.16;4997706;28;20026;-73
2021/12/17 05:43:35;;;;;;;196.25;38.47;;;;;;;7.24;100.00;103988.78;4996203;28;20283;-73
2021/12/17 05:48:26;;;;;;;179.65;34.28;;;;;;;7.25;100.00;103979.31;5004672;28;20124;-73
2021/12/17 05:50:58;;;;;;;161.00;31.52;;;;;;;7.24;100.00;103974.88;5001817;28;20057;-73
2021/12/17 05:53:24;;;;;;;158.88;30.63;;;;;;;7.26;100.00;103971.66;5000905;28;20141;-72
2021/12/17 05:55:50;;;;;;;164.95;31.00;;;;;;;7.25;100.00;103975.03;5001682;28;20501;-73
2021/12/17 05:58:16;;;;;;;156.43;29.95;;;;;;;7.25;100.00;103975.03;5003728;28;20126;-72
2021/12/17 06:00:44;;;;;;;165.40;29.73;;;;;;;7.25;100.00;103980.22;5002038;28;20041;-72
2021/12/17 06:03:09;;;;;;;163.35;33.30;;;;;;;7.26;100.00;103983.72;5003175;28;20044;-73
2021/12/17 06:05:35;;;;;;;197.60;33.53;;;;;;;7.26;100.00;103988.91;5001627;28;20038;-73
2021/12/17 06:08:01;;;;;;;177.00;33.17;;;;;;;7.26;100.00;103991.50;5003235;28;20022;-72
2021/12/17 06:10:27;;;;;;;189.32;34.22;;;;;;;7.26;100.00;103989.81;5003053;28;20038;-72
2021/12/17 06:12:52;;;;;;;176.98;34.03;;;;;;;7.26;100.00;103999.28;5001189;28;20061;-72
2021/12/17 06:15:19;;;;;;;180.27;33.83;;;;;;;7.25;100.00;103989.69;4999014;28;20100;-72
2021/12/17 06:17:45;;;;;;;169.68;31.35;;;;;;;7.25;100.00;103990.59;5009358;28;20086;-72
2021/12/17 06:20:12;;;;;;;167.80;30.17;;;;;;;7.26;100.00;104000.19;5008171;28;20123;-72
2021/12/17 06:22:38;;;;;;;161.60;29.55;;;;;;;7.27;100.00;104001.09;5000311;28;20130;-72
2021/12/17 06:25:05;;;;;;;160.88;30.27;;;;;;;7.26;100.00;104000.19;5005249;28;20116;-73
2021/12/17 06:27:30;;;;;;;146.18;26.60;;;;;;;7.26;100.00;103997.59;5002977;28;20401;-73
2021/12/17 06:29:57;;;;;;;141.82;26.25;;;;;;;7.25;100.00;104013.03;5002470;28;20025;-73
2021/12/17 06:32:23;;;;;;;132.20;26.48;;;;;;;7.24;100.00;104009.53;5001463;28;20053;-72
2021/12/17 06:34:49;;;;;;;136.48;26.48;;;;;;;7.26;100.00;104007.06;5006833;28;20107;-72
2021/12/17 06:37:17;;;;;;;130.85;25.92;;;;;;;7.26;100.00;104009.66;5004264;28;21646;-72
2021/12/17 06:39:43;;;;;;;126.13;24.67;;;;;;;7.26;100.00;104007.06;5004014;28;20033;-72
2021/12/17 06:42:10;;;;;;;130.05;23.13;;;;;;;7.24;100.00;104004.34;5006258;28;20492;-72
2021/12/17 06:44:36;;;;;;;118.07;23.50;;;;;;;7.24;100.00;104009.53;5007820;28;20073;-73
2021/12/17 07:10:59;;;;;;;100.93;20.60;;;;;;;7.20;100.00;104009.09;5005572;28;20284;-72
2021/12/17 07:34:43;;;;;;;102.35;21.33;;;;;;;7.17;100.00;103998.47;5002499;28;20096;-72
2021/12/17 07:39:38;;;;;;;97.88;20.63;;;;;;;7.17;100.00;103995.88;5002938;28;20566;-72
2021/12/17 07:42:04;;;;;;;99.10;20.00;;;;;;;7.17;100.00;103985.50;4999556;28;20030;-72
2021/12/17 07:44:29;;;;;;;98.25;20.55;;;;;;;7.16;100.00;103992.38;5003536;28;20481;-72
2021/12/17 07:46:54;;;;;;;103.82;19.73;;;;;;;7.18;100.00;104002.88;5002230;28;20548;-72
2021/12/17 07:49:20;;;;;;;98.90;18.90;;;;;;;7.18;100.00;103997.69;5005148;28;20029;-72
2021/12/17 07:51:45;;;;;;;93.45;20.00;;;;;;;7.16;100.00;104007.03;4999995;28;20607;-72
2021/12/17 07:54:11;;;;;;;87.68;18.48;;;;;;;7.17;100.00;103995.88;5000327;28;20025;-72
2021/12/17 07:56:39;;;;;;;88.15;18.58;;;;;;;7.16;100.00;104000.16;5000157;28;20033;-72
2021/12/17 07:59:06;;;;;;;93.13;18.42;;;;;;;7.15;100.00;103998.31;5018984;28;20528;-72
2021/12/17 08:01:32;;;;;;;92.18;18.73;;;;;;;7.15;100.00;103995.72;5006242;28;20406;-72
2021/12/17 08:03:57;;;;;;;79.40;17.38;;;;;;;7.16;100.00;103999.25;5002923;28;20029;-72
2021/12/17 08:06:23;;;;;;;94.55;18.90;;;;;;;7.15;100.00;103993.13;5003258;28;20492;-72
2021/12/17 08:08:48;;;;;;;93.03;19.85;;;;;;;7.15;100.00;104000.91;5001753;28;20060;-72
2021/12/17 08:11:14;;;;;;;99.72;19.20;;;;;;;7.15;100.00;104003.50;5006574;28;20057;-72
2021/12/17 08:13:41;;;;;;;103.22;20.92;;;;;;;7.15;100.00;104003.50;5005869;28;20030;-73
2021/12/17 08:16:17;;;;;;;88.95;18.83;;;;;;;7.14;100.00;104005.22;5005612;28;20550;-72
2021/12/17 08:26:53;;;;;;;111.47;31.48;;;;;;;7.17;100.00;104021.81;5004183;28;20088;-72
2021/12/17 08:29:43;;;;;;;114.70;32.63;;;;;;;7.17;100.00;104025.31;5008783;28;20026;-72
2021/12/17 08:32:08;;;;;;;;;;;;;;;7.22;100.00;104020.53;5000825;28;20033;-73
2021/12/17 08:34:34;;;;;;;107.05;33.95;;;;;;;7.17;100.00;104027.91;5006567;28;19921;-72
2021/12/17 08:37:00;;;;;;;109.45;34.15;;;;;;;7.16;100.00;104028.69;4996939;28;20033;-72
2021/12/17 08:39:26;;;;;;;112.93;34.38;;;;;;;7.14;100.00;104033.72;4998011;28;20038;-72
2021/12/17 08:41:54;;;;;;;102.55;33.83;;;;;;;7.14;100.00;104028.56;5003508;28;20045;-72
2021/12/17 08:44:21;;;;;;;113.47;35.40;;;;;;;7.14;100.00;104028.56;5001527;28;20026;-72
2021/12/17 08:46:46;;;;;;;106.18;34.50;;;;;;;7.14;100.00;104025.06;5004737;28;20121;-72
2021/12/17 08:49:12;;;;;;;111.03;36.00;;;;;;;7.17;100.00;104029.59;5004120;28;20109;-72
2021/12/17 08:51:38;;;;;;;106.07;35.03;;;;;;;7.15;100.00;104026.84;5004449;28;20022;-72
2021/12/17 08:54:04;;;;;;;101.43;34.25;;;;;;;7.16;100.00;104026.09;4996774;28;20092;-72
2021/12/17 08:56:31;;;;;;;105.97;36.40;;;;;;;7.16;100.00;104015.72;5000431;28;20034;-72
2021/12/17 08:59:00;;;;;;;111.65;36.60;;;;;;;7.16;100.00;104015.72;5001268;28;20146;-72
2021/12/17 09:01:25;;;;;;;127.88;37.47;;;;;;;7.19;100.00;104026.34;4998938;28;20030;-73
2021/12/17 09:03:50;;;;;;;116.07;37.53;;;;;;;7.20;100.00;104019.47;4995577;28;20018;-72
2021/12/17 09:06:16;;;;;;;121.65;36.33;;;;;;;7.20;100.00;104028.19;5004757;28;20474;-73
2021/12/17 09:08:42;;;;;;;123.75;35.47;;;;;;;7.20;100.00;104027.25;5007766;28;20108;-73
2021/12/17 09:11:07;;;;;;;112.75;36.45;;;;;;;7.21;100.00;104019.66;5007711;28;20112;-73
2021/12/17 09:13:33;;;;;;;111.43;35.97;;;;;;;7.23;100.00;104028.47;5001443;28;20030;-73
2021/12/17 09:16:04;;;;;;;121.05;35.55;;;;;;;7.25;100.00;104038.97;5025870;28;20113;-72
2021/12/17 09:18:30;;;;;;;118.07;35.25;;;;;;;7.25;100.00;104044.16;5007925;28;20026;-73
2021/12/17 09:20:56;;;;;;;110.45;33.55;;;;;;;7.26;100.00;104044.28;5006859;28;20325;-73
2021/12/17 09:23:22;;;;;;;110.95;34.00;;;;;;;7.28;100.00;104054.78;5006270;28;20647;-73
2021/12/17 09:25:47;;;;;;;115.95;35.10;;;;;;;7.29;100.00;104054.03;5000602;28;20061;-73
2021/12/17 09:28:13;;;;;;;115.63;32.92;;;;;;;7.30;100.00;104063.66;4998293;28;20026;-73
2021/12/17 09:30:38;;;;;;;104.85;32.00;;;;;;;7.30;100.00;104058.44;5003028;28;20026;-73
2021/12/17 09:33:03;;;;;;;96.60;31.52;;;;;;;7.32;100.00;104060.38;5005621;28;20108;-73
2021/12/17 09:35:29;;;;;;;107.22;30.55;;;;;;;7.32;100.00;104065.56;5006872;28;20156;-73
2021/12/17 09:37:54;;;;;;;109.80;30.73;;;;;;;7.34;100.00;104070.00;5011908;28;20034;-73
2021/12/17 09:40:20;;;;;;;114.35;31.30;;;;;;;7.35;100.00;104071.81;5008221;28;20017;-72
2021/12/17 09:42:45;;;;;;;112.20;31.60;;;;;;;7.35;100.00;104067.53;5007981;28;20029;-72
2021/12/17 09:45:13;;;;;;;120.25;30.15;;;;;;;7.37;100.00;104073.78;5007768;28;20415;-72
2021/12/17 09:47:43;;;;;;;112.70;29.35;;;;;;;7.36;100.00;104073.63;5001685;28;20030;-74
2021/12/17 09:50:10;;;;;;;100.20;29.88;;;;;;;7.37;100.00;104070.25;5007449;28;20037;-74
2021/12/17 09:52:35;;;;;;;107.03;29.42;;;;;;;7.37;100.00;104084.16;5006199;28;20038;-74
2021/12/17 09:55:03;;;;;;;101.57;30.77;;;;;;;7.39;100.00;104087.78;5006470;28;20033;-74
2021/12/17 09:57:35;;;;;;;106.60;30.58;;;;;;;7.41;100.00;104085.34;5007506;28;20188;-74
2021/12/17 10:00:16;;;;;;;110.22;32.75;;;;;;;7.42;100.00;104074.19;5004357;28;20511;-74
2021/12/17 10:02:46;;;;;;;107.68;31.88;;;;;;;7.43;100.00;104084.69;5001070;28;20049;-74
2021/12/17 10:05:20;;;;;;;101.40;28.42;;;;;;;7.44;100.00;104083.94;5023619;28;20026;-74
2021/12/17 10:07:47;;;;;;;101.93;29.45;;;;;;;7.46;100.00;104084.97;5004156;28;20030;-75
2021/12/17 10:10:13;;;;;;;106.25;29.95;;;;;;;7.47;100.00;104086.81;5007809;28;20519;-74
2021/12/17 10:12:40;;;;;;;102.50;29.17;;;;;;;7.48;100.00;104088.59;5008741;28;20037;-75
2021/12/17 10:15:09;;;;;;;97.25;28.80;;;;;;;7.51;100.00;104100.03;5007776;28;20091;-74
2021/12/17 10:17:48;;;;;;;91.60;27.02;;;;;;;7.52;100.00;104089.78;5007073;28;20033;-74
2021/12/17 10:20:14;;;;;;;106.75;28.33;;;;;;;7.54;100.00;104089.94;5005260;28;20404;-74
2021/12/17 10:22:44;;;;;;;99.68;26.70;;;;;;;7.55;100.00;104089.16;5006672;28;20025;-74
2021/12/17 10:25:10;;;;;;;95.15;25.13;;;;;;;7.56;100.00;104085.78;5007900;28;20033;-74
2021/12/17 10:27:39;;;;;;;80.25;23.17;;;;;;;7.60;100.00;104093.06;5009037;28;20030;-74
2021/12/17 10:30:15;;;;;;;85.00;23.83;;;;;;;7.60;100.00;104098.25;5005990;28;20487;-74
2021/12/17 10:32:46;;;;;;;81.43;21.63;;;;;;;7.59;100.00;104101.59;5008442;28;20042;-74
2021/12/17 10:35:21;;;;;;;81.32;20.40;;;;;;;7.62;100.00;104107.09;5001703;28;20026;-74
2021/12/17 10:37:56;;;;;;;80.80;20.67;;;;;;;7.63;100.00;104085.53;5006874;28;20033;-74
2021/12/17 10:40:32;;;;;;;76.85;18.73;;;;;;;7.63;100.00;104082.94;5002950;28;20112;-74
2021/12/17 10:43:18;;;;;;;66.03;17.58;;;;;;;7.66;100.00;104083.22;5000786;28;20029;-74
2021/12/17 10:46:00;;;;;;;74.07;17.15;;;;;;;7.67;100.00;104087.63;5008006;28;20030;-74
2021/12/17 10:48:48;;;;;;;59.92;15.65;;;;;;;7.68;100.00;104093.75;5007392;28;20408;-75
2021/12/17 10:51:45;;;;;;;71.57;16.80;;;;;;;7.70;100.00;104099.97;5002985;28;20451;-74
2021/12/17 10:54:16;;;;;;;54.80;15.25;;;;;;;7.70;100.00;104094.78;4999219;28;20038;-74
2021/12/17 10:56:47;;;;;;;59.25;14.93;;;;;;;7.70;100.00;104093.09;5003943;28;20018;-74
2021/12/17 10:59:15;;;;;;;64.38;15.05;;;;;;;7.71;100.00;104094.91;5000490;28;20038;-74
2021/12/17 11:01:49;;;;;;;66.40;16.05;;;;;;;7.71;100.00;104089.72;4993688;28;20041;-74
2021/12/17 11:04:26;;;;;;;58.33;14.77;;;;;;;7.72;99.90;104094.16;4993543;28;20031;-75
2021/12/17 11:06:54;;;;;;;67.38;16.90;;;;;;;7.74;100.00;104099.47;4993844;28;20034;-74
2021/12/17 11:09:41;;;;;;;56.63;15.70;;;;;;;7.76;100.00;104101.44;4994466;28;20034;-78
2021/12/17 11:12:31;;;;;;;62.92;16.17;;;;;;;7.77;100.00;104098.03;5010400;28;20118;-74
2021/12/17 11:15:14;;;;;;;66.30;16.45;;;;;;;7.79;100.00;104088.72;5011793;28;20036;-74
2021/12/17 11:17:44;;;;;;;62.33;15.40;;;;;;;7.79;100.00;104091.31;5012780;28;20037;-74
2021/12/17 11:20:17;;;;;;;67.93;16.30;;;;;;;7.79;100.00;104088.72;5008132;28;20026;-74
2021/12/17 11:22:45;;;;;;;66.95;16.35;;;;;;;7.81;100.00;104081.97;5001777;28;20022;-74
2021/12/17 11:25:12;;;;;;;69.03;17.02;;;;;;;7.82;100.00;104094.19;5007340;28;20029;-74
2021/12/17 11:27:38;;;;;;;67.40;16.50;;;;;;;7.83;100.00;104088.22;5002822;28;20043;-74
2021/12/17 11:30:07;;;;;;;72.18;17.60;;;;;;;7.84;100.00;104076.13;5001713;28;20013;-74
2021/12/17 11:32:33;;;;;;;59.88;15.43;;;;;;;7.86;100.00;104076.28;5007830;28;20025;-75
2021/12/17 11:34:59;;;;;;;65.45;16.90;;;;;;;7.85;100.00;104072.78;5009124;28;20030;-74
2021/12/17 11:37:25;;;;;;;62.47;16.38;;;;;;;7.84;99.94;104069.25;5009520;28;20040;-74
2021/12/17 11:40:05;;;;;;;60.67;16.17;;;;;;;7.86;100.00;104065.88;5010514;28;20543;-74
2021/12/17 11:42:42;;;;;;;63.22;16.88;;;;;;;7.89;100.00;104060.94;5009831;28;20030;-75
2021/12/17 11:45:23;;;;;;;66.43;18.38;;;;;;;7.89;100.00;104060.94;5009839;28;20492;-74
2021/12/17 11:47:50;;;;;;;56.30;16.23;;;;;;;7.90;100.00;104055.00;5008674;28;20032;-74
2021/12/17 11:50:17;;;;;;;58.03;17.27;;;;;;;7.91;100.00;104054.22;5007017;28;20034;-74
2021/12/17 11:52:45;;;;;;;60.05;17.95;;;;;;;7.92;99.96;104049.16;5012192;28;20112;-74
2021/12/17 11:55:34;;;;;;;62.17;16.88;;;;;;;7.96;100.00;104053.81;5010218;28;20084;-74
2021/12/17 11:58:08;;;;;;;72.75;18.35;;;;;;;7.98;100.00;104046.16;5010444;28;20390;-74
2021/12/17 12:00:39;;;;;;;59.28;18.02;;;;;;;7.98;100.00;104047.09;5010390;28;20030;-74
2021/12/17 12:03:18;;;;;;;59.38;18.13;;;;;;;7.98;100.00;104041.88;5010345;28;20066;-74
2021/12/17 12:05:46;;;;;;;62.88;18.23;;;;;;;7.99;99.96;104037.59;5006900;28;20518;-74
2021/12/17 12:08:40;;;;;;;61.33;18.05;;;;;;;8.01;99.88;104046.44;5008255;28;20111;-74
2021/12/17 12:11:09;;;;;;;60.38;18.52;;;;;;;8.01;100.00;104047.34;5006957;28;20030;-74
2021/12/17 12:13:44;;;;;;;63.45;18.75;;;;;;;8.01;100.00;104052.53;5000748;28;20109;-75
2021/12/17 12:16:15;;;;;;;62.28;16.80;;;;;;;8.01;99.70;104054.25;5008505;28;20030;-74
2021/12/17 12:18:49;;;;;;;57.08;18.10;;;;;;;8.03;99.64;104060.47;5007729;28;20113;-74
2021/12/17 12:21:17;;;;;;;66.80;17.85;;;;;;;8.00;99.25;104058.50;5007249;28;20061;-74
2021/12/17 12:23:49;;;;;;;59.78;18.83;;;;;;;8.01;99.55;104062.94;5008226;28;20441;-74
2021/12/17 12:26:20;;;;;;;52.28;17.20;;;;;;;8.01;99.55;104062.03;5002590;28;20026;-74
2021/12/17 12:28:56;;;;;;;51.10;16.48;;;;;;;8.00;99.51;104061.09;5002537;28;20026;-74
2021/12/17 12:31:25;;;;;;;47.78;15.90;;;;;;;8.00;99.42;104066.28;5007307;28;20061;-74
2021/12/17 12:36:49;;;;;;;49.28;17.13;;;;;;;8.01;99.55;104051.63;5008684;28;20052;-74
2021/12/17 12:39:31;;;;;;;42.22;14.82;;;;;;;8.02;99.35;104048.25;5005609;28;20169;-74
2021/12/17 12:42:13;;;;;;;41.78;14.15;;;;;;;8.01;99.31;104049.03;5003166;28;20029;-75
2021/12/17 12:44:44;;;;;;;41.10;14.35;;;;;;;8.02;99.48;104053.44;5004980;28;20026;-74
2021/12/17 12:47:34;;;;;;;34.92;12.73;;;;;;;8.01;99.21;104043.84;5008244;28;20385;-74
2021/12/17 12:50:03;;;;;;;35.35;12.85;;;;;;;7.99;98.90;104038.53;5006152;28;20034;-74
2021/12/17 12:52:31;;;;;;;36.97;14.25;;;;;;;7.99;99.08;104043.72;5009625;28;20022;-74
2021/12/17 12:55:01;;;;;;;33.95;13.45;;;;;;;7.99;98.97;104043.72;5009570;28;20141;-74
2021/12/17 12:57:36;;;;;;;34.38;12.48;;;;;;;7.98;98.75;104044.50;5009685;28;20026;-74
2021/12/17 13:00:13;;;;;;;37.67;12.27;;;;;;;7.96;98.37;104035.63;5010475;28;20108;-74
2021/12/17 13:02:40;;;;;;;37.38;12.43;;;;;;;7.95;98.41;104040.69;5002012;28;20481;-74
2021/12/17 13:05:07;;;;;;;33.53;11.93;;;;;;;7.94;98.27;104042.41;5001682;28;20057;-74
2021/12/17 13:07:40;;;;;;;39.63;13.18;;;;;;;7.93;98.02;104047.47;5005740;28;20029;-74
2021/12/17 13:10:13;;;;;;;41.65;13.68;;;;;;;7.90;97.55;104042.00;5007316;28;20036;-74
2021/12/17 13:12:40;;;;;;;36.88;12.43;;;;;;;7.89;97.69;104042.78;5010970;28;20030;-74
2021/12/17 13:15:17;;;;;;;46.30;15.48;;;;;;;7.87;97.46;104046.94;5010614;28;20030;-74
2021/12/17 13:23:39;;;;;;;45.45;14.43;;;;;;;7.84;97.54;104039.78;5007459;28;20048;-75
2021/12/17 13:26:10;;;;;;;44.58;14.40;;;;;;;7.84;97.61;104034.59;5010701;28;20084;-74
2021/12/17 13:28:46;;;;;;;39.25;13.57;;;;;;;7.84;97.46;104037.19;4999053;28;20100;-75
2021/12/17 13:31:11;;;;;;;36.88;12.80;;;;;;;7.83;97.32;104041.50;5010557;28;20485;-74
2021/12/17 13:33:38;;;;;;;31.05;10.77;;;;;;;7.83;97.08;104049.28;5009517;28;20030;-72
2021/12/17 13:36:11;;;;;;;24.52;8.88;;;;;;;7.83;96.91;104036.28;5010788;28;20034;-74
2021/12/17 13:38:36;;;;;;;19.98;7.88;;;;;;;7.83;96.66;104040.56;5010098;28;20030;-74
2021/12/17 13:41:03;;;;;;;21.35;8.35;;;;;;;7.81;97.02;104030.03;5010580;28;20029;-74
2021/12/17 13:43:29;;;;;;;20.73;8.98;;;;;;;7.80;96.55;104040.28;4998289;28;20508;-75
2021/12/17 13:45:55;;;;;;;23.63;8.82;;;;;;;7.79;96.91;104033.28;5009202;28;20666;-75
2021/12/17 13:48:21;;;;;;;20.75;8.05;;;;;;;7.78;96.84;104034.97;5006865;28;20049;-75
2021/12/17 13:50:50;;;;;;;21.73;8.05;;;;;;;7.77;96.75;104034.84;5005372;28;20128;-76
2021/12/17 13:53:17;;;;;;;23.77;8.23;;;;;;;7.77;96.89;104035.75;5004914;28;20021;-75
2021/12/17 13:55:45;;;;;;;19.10;8.00;;;;;;;7.76;96.72;104043.41;5007600;28;20026;-75
2021/12/17 13:58:13;;;;;;;17.30;7.30;;;;;;;7.75;96.50;104055.47;5008635;28;20049;-75
2021/12/17 14:00:52;;;;;;;30.43;13.47;;;;;;;7.74;96.49;104044.97;5009249;28;20036;-75
2021/12/17 14:03:22;;;;;;;148.65;67.68;;;;;;;7.73;96.16;104033.66;5008905;28;20031;-75
2021/12/17 14:05:57;;;;;;;;;;;;;;;7.78;96.69;104040.16;5009584;28;20037;-75
2021/12/17 14:08:23;;;;;;;300.77;203.73;;;;;;;7.72;96.16;104039.66;5007231;28;19920;-75
2021/12/17 14:10:53;;;;;;;112.38;76.90;;;;;;;7.68;95.99;104045.34;5008221;28;20026;-75
2021/12/17 14:13:22;;;;;;;391.23;276.48;;;;;;;7.67;95.92;104043.50;5008466;28;20112;-75
2021/12/17 14:15:49;;;;;;;245.32;140.35;;;;;;;7.67;96.40;104040.91;5008604;28;20100;-75
2021/12/17 14:18:17;;;;;;;752.20;397.60;;;;;;;7.65;96.19;104045.06;5005902;28;20037;-75